createdAt,value
2022-08-21T00:03:59.634Z,87.34
2022-08-21T00:09:08.141Z,87.5
2022-08-21T00:14:16.473Z,87.61001
2022-08-21T00:19:30.486Z,87.96
2022-08-21T00:24:37.286Z,88.16001
2022-08-21T00:29:45.312Z,88.24
2022-08-21T00:34:53.029Z,88.36
2022-08-21T00:39:59.615Z,88.38
2022-08-21T00:45:08.047Z,88.46
2022-08-21T00:50:14.792Z,88.5
2022-08-21T00:55:22.069Z,88.68
2022-08-21T01:00:28.486Z,88.78
2022-08-21T01:05:37.170Z,88.83
2022-08-21T01:10:43.680Z,88.9
2022-08-21T01:15:52.068Z,88.94
2022-08-21T01:20:59.181Z,89.04
2022-08-21T01:26:06.480Z,89.18
2022-08-21T01:31:14.359Z,89.35
2022-08-21T01:36:22.489Z,89.32
2022-08-21T01:41:33.396Z,89.23
2022-08-21T01:46:41.543Z,89.55001
2022-08-21T01:51:49.455Z,89.90001
2022-08-21T01:56:57.522Z,90.21
2022-08-21T02:02:05.230Z,90.25001
2022-08-21T02:07:11.608Z,90.31
2022-08-21T02:12:19.778Z,90.51001
2022-08-21T02:17:27.453Z,90.72001
2022-08-21T02:22:34.539Z,90.86
2022-08-21T02:27:41.048Z,91.1
2022-08-21T02:32:48.858Z,91.14
2022-08-21T02:37:56.483Z,91.23
2022-08-21T02:43:05.054Z,91.13
2022-08-21T02:48:13.110Z,91.21
2022-08-21T02:53:22.092Z,91.18
2022-08-21T02:58:29.841Z,91.22001
2022-08-21T03:03:37.744Z,91.34
2022-08-21T03:08:45.350Z,91.50001
2022-08-21T03:13:53.023Z,91.63
2022-08-21T03:19:00.056Z,91.34
2022-08-21T03:24:07.929Z,91.3
2022-08-21T03:29:15.733Z,91.26
2022-08-21T03:34:22.950Z,91.2
2022-08-21T03:39:30.123Z,91.22001
2022-08-21T03:44:36.698Z,90.95
2022-08-21T03:49:44.540Z,90.80001
2022-08-21T03:54:51.926Z,90.72001
2022-08-21T03:59:58.936Z,90.68
2022-08-21T04:05:06.868Z,90.46
2022-08-21T04:10:14.607Z,89.84
2022-08-21T04:15:22.573Z,89.97001
2022-08-21T04:20:29.079Z,89.79
2022-08-21T04:25:38.088Z,89.62001
2022-08-21T04:30:44.867Z,89.62001
2022-08-21T04:35:52.202Z,89.56
2022-08-21T04:41:00.503Z,89.51
2022-08-21T04:46:09.274Z,89.46
2022-08-21T04:51:16.053Z,89.52
2022-08-21T04:56:24.480Z,89.55001
2022-08-21T05:02:09.539Z,89.72
2022-08-21T05:07:17.318Z,89.53
2022-08-21T05:12:24.540Z,89.31
2022-08-21T05:17:32.379Z,89.22
2022-08-21T05:22:40.688Z,89.01999
2022-08-21T05:27:48.057Z,88.91001
2022-08-21T05:32:56.041Z,88.81
2022-08-21T05:38:03.129Z,89.28
2022-08-21T05:43:18.015Z,87.80001
2022-08-21T05:48:26.491Z,87.96
2022-08-21T05:53:33.017Z,88.36
2022-08-21T05:58:40.872Z,88.32
2022-08-21T06:03:49.115Z,87.98
2022-08-21T06:08:56.573Z,88.07
2022-08-21T06:14:05.015Z,88.53
2022-08-21T06:19:13.304Z,88.74
2022-08-21T06:24:20.694Z,88.77
2022-08-21T06:29:28.963Z,89.32
2022-08-21T06:34:35.096Z,89.41001
2022-08-21T06:39:42.937Z,89.54
2022-08-21T06:44:50.569Z,89.58
2022-08-21T06:49:57.916Z,89.63
2022-08-21T06:56:36.952Z,89.2
2022-08-21T07:01:44.344Z,89.68
2022-08-21T07:06:53.491Z,89.71
2022-08-21T07:12:02.586Z,89.17
2022-08-21T07:17:12.830Z,89.2
2022-08-21T07:22:28.233Z,89.3
2022-08-21T07:27:40.826Z,89.28
2022-08-21T07:32:50.420Z,89.58
2022-08-21T07:37:59.773Z,89.94
2022-08-21T07:49:15.803Z,91.02
2022-08-21T07:55:01.437Z,91.27
2022-08-21T08:00:09.438Z,91.6
2022-08-21T08:05:16.382Z,91.83001
2022-08-21T08:10:24.485Z,91.7
2022-08-21T08:15:31.418Z,91.18
2022-08-21T08:20:40.414Z,91.08001
2022-08-21T08:25:47.759Z,90.6
2022-08-21T08:30:56.734Z,87.17
2022-08-21T08:36:05.630Z,85.18001
2022-08-21T08:41:13.157Z,84.76001
2022-08-21T08:46:20.387Z,85.24
2022-08-21T08:51:28.153Z,85.44001
2022-08-21T08:56:36.064Z,84.85
2022-08-21T09:01:43.706Z,84.05001
2022-08-21T09:06:51.926Z,83.38
2022-08-21T09:12:00.728Z,83.79001
2022-08-21T09:17:09.330Z,82.04
2022-08-21T09:22:17.182Z,82.13
2022-08-21T09:27:24.380Z,83.13
2022-08-21T09:32:32.809Z,80.33999
2022-08-21T09:37:39.413Z,81.22001
2022-08-21T09:43:01.336Z,82.31
2022-08-21T09:48:10.448Z,79.25
2022-08-21T09:53:18.073Z,77.94
2022-08-21T09:58:26.467Z,77.32
2022-08-21T10:03:33.912Z,79.24
2022-08-21T10:08:42.143Z,76.34
2022-08-21T10:13:49.787Z,74.95
2022-08-21T10:18:57.764Z,76.89
2022-08-21T10:24:05.365Z,75.69
2022-08-21T10:29:14.139Z,76.1
2022-08-21T10:34:22.807Z,72.96
2022-08-21T10:39:30.117Z,75.77
2022-08-21T10:44:37.852Z,71.85
2022-08-21T10:49:46.023Z,75.17
2022-08-21T10:54:53.480Z,72.58
2022-08-21T11:00:01.448Z,74.73001
2022-08-21T11:05:08.054Z,72.66
2022-08-21T11:10:16.010Z,71.85
2022-08-21T11:15:23.898Z,71.74
2022-08-21T11:20:31.619Z,71.62
2022-08-21T11:25:39.177Z,74.92
2022-08-21T11:30:46.612Z,69.25
2022-08-21T11:35:53.178Z,67.3
2022-08-21T11:41:00.555Z,73.84
2022-08-21T11:46:07.863Z,70.12001
2022-08-21T11:51:14.780Z,67.49
2022-08-21T11:56:21.814Z,68.3
2022-08-21T12:01:28.543Z,69.5
2022-08-21T12:06:36.099Z,69.09
2022-08-21T12:11:42.937Z,68.27
2022-08-21T12:16:51.086Z,69.72
2022-08-21T12:21:58.459Z,69.66001
2022-08-21T12:27:07.531Z,71.64
2022-08-21T12:32:15.450Z,68.18
2022-08-21T12:37:23.644Z,70.07
2022-08-21T12:42:30.647Z,69.89
2022-08-21T12:47:38.488Z,68.78
2022-08-21T12:52:47.292Z,69.99
2022-08-21T12:57:55.661Z,67.89
2022-08-21T13:03:02.990Z,70.02
2022-08-21T13:08:10.461Z,68.59
2022-08-21T13:13:18.013Z,71.78
2022-08-21T13:18:24.897Z,67.21
2022-08-21T13:23:32.768Z,67.1
2022-08-21T13:28:41.621Z,67.91
2022-08-21T13:33:49.071Z,65.83
2022-08-21T13:38:57.435Z,67.53
2022-08-21T13:44:04.790Z,69.72
2022-08-21T13:49:12.479Z,67.48001
2022-08-21T13:54:19.741Z,68.7
2022-08-21T13:59:26.301Z,70.41
2022-08-21T14:04:34.312Z,70.62
2022-08-21T14:09:42.837Z,69.14
2022-08-21T14:14:51.545Z,68.53
2022-08-21T14:19:58.943Z,69.38
2022-08-21T14:25:13.819Z,70.28
2022-08-21T14:30:21.608Z,70.54
2022-08-21T14:35:29.528Z,71.28
2022-08-21T14:40:37.353Z,67.82
2022-08-21T14:45:43.927Z,68.64
2022-08-21T14:50:54.833Z,69.6
2022-08-21T14:56:02.120Z,69.8
2022-08-21T15:01:09.325Z,70.42
2022-08-21T15:06:15.889Z,70.28
2022-08-21T15:11:23.981Z,71.67
2022-08-21T15:16:32.105Z,70.93
2022-08-21T15:21:39.454Z,70.57
2022-08-21T15:26:48.339Z,70.98001
2022-08-21T15:31:56.162Z,70.75
2022-08-21T15:37:04.747Z,72.63
2022-08-21T15:42:12.578Z,71.54
2022-08-21T15:47:19.931Z,72.31
2022-08-21T15:52:27.129Z,72.68
2022-08-21T15:57:34.893Z,72.74
2022-08-21T16:02:42.170Z,72.84
2022-08-21T16:07:50.184Z,73.82
2022-08-21T16:13:11.932Z,73.49
2022-08-21T16:18:20.751Z,74.4
2022-08-21T16:23:28.312Z,74.74
2022-08-21T16:28:35.417Z,75.72
2022-08-21T16:33:43.214Z,76.31
2022-08-21T16:38:52.760Z,76.8
2022-08-21T16:43:59.890Z,77.45
2022-08-21T16:49:07.444Z,77.49
2022-08-21T16:54:15.399Z,78.34
2022-08-21T16:59:23.599Z,78.72
2022-08-21T17:04:30.946Z,79.08
2022-08-21T17:09:38.615Z,79.2
2022-08-21T17:14:45.653Z,79.62
2022-08-21T17:19:53.175Z,80.09
2022-08-21T17:24:59.734Z,80.0
2022-08-21T17:30:07.634Z,79.89
2022-08-21T17:35:15.393Z,79.85
2022-08-21T17:40:22.615Z,80.94001
2022-08-21T17:45:29.926Z,82.52
2022-08-21T17:50:38.017Z,83.34
2022-08-21T17:55:45.560Z,83.8
2022-08-21T18:00:53.840Z,83.74
2022-08-21T18:06:01.136Z,84.2
2022-08-21T18:11:10.070Z,84.97001
2022-08-21T18:16:17.685Z,85.77
2022-08-21T18:21:25.311Z,86.41001
2022-08-21T18:26:33.675Z,86.77
2022-08-21T18:31:40.708Z,86.94
2022-08-21T18:36:48.242Z,87.08
2022-08-21T18:41:55.440Z,87.31
2022-08-21T18:47:03.684Z,87.46
2022-08-21T18:52:10.821Z,87.48
2022-08-21T18:57:19.449Z,87.46
2022-08-21T19:02:28.347Z,87.49
2022-08-21T19:07:35.898Z,87.64
2022-08-21T19:12:42.565Z,87.9
2022-08-21T19:17:50.112Z,88.05
2022-08-21T19:22:56.852Z,88.27
2022-08-21T19:28:04.357Z,88.47
2022-08-21T19:33:13.046Z,88.56
2022-08-21T19:38:20.664Z,88.56
2022-08-21T19:43:28.274Z,88.62
2022-08-21T19:48:36.054Z,88.64
2022-08-21T19:53:43.386Z,88.76
2022-08-21T19:58:51.174Z,88.54
2022-08-21T20:03:58.601Z,88.51001
2022-08-21T20:09:05.513Z,88.54
2022-08-21T20:14:13.424Z,88.72001
2022-08-21T20:19:28.726Z,89.00001
2022-08-21T20:24:36.059Z,89.17
2022-08-21T20:29:43.296Z,89.3
2022-08-21T20:34:50.453Z,89.49
2022-08-21T20:39:57.048Z,89.53
2022-08-21T20:45:05.246Z,89.66001
2022-08-21T20:50:12.052Z,89.74
2022-08-21T20:55:19.894Z,89.59
2022-08-21T21:00:26.455Z,89.57
2022-08-21T21:05:33.149Z,89.48001
2022-08-21T21:10:40.306Z,89.69001
2022-08-21T21:15:47.480Z,89.64
2022-08-21T21:20:54.896Z,89.7
2022-08-21T21:26:01.923Z,89.76001
2022-08-21T21:31:09.101Z,89.92
2022-08-21T21:36:16.644Z,89.86
2022-08-21T21:41:24.781Z,90.07
2022-08-21T21:46:31.892Z,90.13
2022-08-21T21:51:39.097Z,90.18001
2022-08-21T21:56:47.079Z,90.12
2022-08-21T22:01:55.347Z,90.0
2022-08-21T22:07:01.335Z,89.92
2022-08-21T22:12:50.146Z,89.94
2022-08-21T22:17:58.217Z,90.19
2022-08-21T22:23:06.971Z,90.29
2022-08-21T22:28:15.037Z,90.35
2022-08-21T22:33:22.517Z,90.2
2022-08-21T22:38:31.137Z,90.06
2022-08-21T22:43:39.219Z,89.98
2022-08-21T22:48:46.317Z,89.99
2022-08-21T22:53:53.494Z,89.92
2022-08-21T22:59:01.303Z,90.08
2022-08-21T23:04:09.170Z,90.0
2022-08-21T23:09:17.546Z,89.86
2022-08-21T23:14:26.010Z,89.87
2022-08-21T23:19:33.973Z,89.76001
2022-08-21T23:24:42.759Z,89.86
2022-08-21T23:29:49.016Z,89.83001
2022-08-21T23:34:57.286Z,89.7
2022-08-21T23:40:04.723Z,89.52
2022-08-21T23:45:12.481Z,89.33001
2022-08-21T23:50:53.245Z,89.23
2022-08-21T23:50:53.598Z,89.23
2022-08-21T23:51:51.329Z,89.26001
2022-08-21T23:56:57.174Z,89.38
